sensor_id;sensor_type;location;lat;lon;timestamp;P1;durP1;ratioP1;P2;durP2;ratioP2
16478;SDS011;8350;52.316;10.530;2023-04-06T00:00:44;4.97;;;3.78;;
16478;SDS011;8350;52.316;10.530;2023-04-06T00:03:11;6.95;;;4.25;;
16478;SDS011;8350;52.316;10.530;2023-04-06T00:05:38;4.15;;;3.10;;
16478;SDS011;8350;52.316;10.530;2023-04-06T00:08:06;5.07;;;3.90;;
16478;SDS011;8350;52.316;10.530;2023-04-06T00:10:34;3.80;;;3.25;;
16478;SDS011;8350;52.316;10.530;2023-04-06T00:13:01;3.70;;;3.35;;
16478;SDS011;8350;52.316;10.530;2023-04-06T00:15:28;4.03;;;3.60;;
16478;SDS011;8350;52.316;10.530;2023-04-06T00:17:55;5.75;;;3.95;;
16478;SDS011;8350;52.316;10.530;2023-04-06T00:20:22;5.15;;;3.47;;
16478;SDS011;8350;52.316;10.530;2023-04-06T00:22:49;4.20;;;3.80;;
16478;SDS011;8350;52.316;10.530;2023-04-06T00:25:17;5.25;;;3.80;;
16478;SDS011;8350;52.316;10.530;2023-04-06T00:27:44;6.28;;;3.75;;
16478;SDS011;8350;52.316;10.530;2023-04-06T00:30:11;5.88;;;4.20;;
16478;SDS011;8350;52.316;10.530;2023-04-06T00:32:38;3.72;;;3.30;;
16478;SDS011;8350;52.316;10.530;2023-04-06T00:35:05;4.13;;;3.65;;
16478;SDS011;8350;52.316;10.530;2023-04-06T00:37:35;3.83;;;3.40;;
16478;SDS011;8350;52.316;10.530;2023-04-06T00:40:03;4.20;;;3.58;;
16478;SDS011;8350;52.316;10.530;2023-04-06T00:42:32;4.07;;;3.67;;
16478;SDS011;8350;52.316;10.530;2023-04-06T00:44:59;4.78;;;3.92;;
16478;SDS011;8350;52.316;10.530;2023-04-06T00:47:28;4.18;;;3.67;;
16478;SDS011;8350;52.316;10.530;2023-04-06T00:49:56;5.75;;;4.10;;
16478;SDS011;8350;52.316;10.530;2023-04-06T00:52:23;10.30;;;5.75;;
16478;SDS011;8350;52.316;10.530;2023-04-06T00:54:50;4.10;;;3.70;;
16478;SDS011;8350;52.316;10.530;2023-04-06T00:57:20;4.72;;;3.65;;
16478;SDS011;8350;52.316;10.530;2023-04-06T00:59:48;6.75;;;4.25;;
16478;SDS011;8350;52.316;10.530;2023-04-06T01:02:17;6.65;;;4.05;;
16478;SDS011;8350;52.316;10.530;2023-04-06T01:04:44;4.32;;;3.65;;
16478;SDS011;8350;52.316;10.530;2023-04-06T01:07:11;4.78;;;3.92;;
16478;SDS011;8350;52.316;10.530;2023-04-06T01:09:38;5.35;;;3.90;;
16478;SDS011;8350;52.316;10.530;2023-04-06T01:12:06;4.38;;;3.45;;
16478;SDS011;8350;52.316;10.530;2023-04-06T01:14:33;3.72;;;3.10;;
16478;SDS011;8350;52.316;10.530;2023-04-06T01:17:02;4.05;;;3.03;;
16478;SDS011;8350;52.316;10.530;2023-04-06T01:19:29;5.13;;;3.78;;
16478;SDS011;8350;52.316;10.530;2023-04-06T01:21:56;3.75;;;3.20;;
16478;SDS011;8350;52.316;10.530;2023-04-06T01:24:24;6.25;;;4.13;;
16478;SDS011;8350;52.316;10.530;2023-04-06T01:26:51;3.95;;;3.33;;
16478;SDS011;8350;52.316;10.530;2023-04-06T01:29:18;4.70;;;3.75;;
16478;SDS011;8350;52.316;10.530;2023-04-06T01:31:48;4.97;;;3.35;;
16478;SDS011;8350;52.316;10.530;2023-04-06T01:34:16;4.55;;;3.28;;
16478;SDS011;8350;52.316;10.530;2023-04-06T01:36:43;4.10;;;3.65;;
16478;SDS011;8350;52.316;10.530;2023-04-06T01:39:10;4.53;;;3.25;;
16478;SDS011;8350;52.316;10.530;2023-04-06T01:41:38;4.13;;;3.42;;
16478;SDS011;8350;52.316;10.530;2023-04-06T01:44:05;8.70;;;3.55;;
16478;SDS011;8350;52.316;10.530;2023-04-06T01:46:32;7.43;;;4.10;;
16478;SDS011;8350;52.316;10.530;2023-04-06T01:48:59;4.95;;;3.65;;
16478;SDS011;8350;52.316;10.530;2023-04-06T01:51:26;6.60;;;4.53;;
16478;SDS011;8350;52.316;10.530;2023-04-06T01:53:53;7.15;;;3.72;;
16478;SDS011;8350;52.316;10.530;2023-04-06T01:56:20;4.05;;;3.65;;
16478;SDS011;8350;52.316;10.530;2023-04-06T01:58:48;4.25;;;3.45;;
16478;SDS011;8350;52.316;10.530;2023-04-06T02:01:15;5.63;;;3.53;;
16478;SDS011;8350;52.316;10.530;2023-04-06T02:03:43;4.40;;;3.55;;
16478;SDS011;8350;52.316;10.530;2023-04-06T02:06:10;4.10;;;3.72;;
16478;SDS011;8350;52.316;10.530;2023-04-06T02:08:37;4.15;;;3.75;;
16478;SDS011;8350;52.316;10.530;2023-04-06T02:11:07;3.92;;;3.38;;
16478;SDS011;8350;52.316;10.530;2023-04-06T02:13:36;6.80;;;3.88;;
16478;SDS011;8350;52.316;10.530;2023-04-06T02:16:05;4.78;;;3.47;;
16478;SDS011;8350;52.316;10.530;2023-04-06T02:18:35;5.65;;;3.30;;
16478;SDS011;8350;52.316;10.530;2023-04-06T02:21:02;5.13;;;3.10;;
16478;SDS011;8350;52.316;10.530;2023-04-06T02:23:29;5.15;;;3.20;;
16478;SDS011;8350;52.316;10.530;2023-04-06T02:25:56;5.22;;;3.65;;
16478;SDS011;8350;52.316;10.530;2023-04-06T02:28:23;4.78;;;3.15;;
16478;SDS011;8350;52.316;10.530;2023-04-06T02:30:50;3.92;;;3.53;;
16478;SDS011;8350;52.316;10.530;2023-04-06T02:33:20;3.40;;;3.10;;
16478;SDS011;8350;52.316;10.530;2023-04-06T02:35:47;6.70;;;3.83;;
16478;SDS011;8350;52.316;10.530;2023-04-06T02:38:14;5.38;;;3.28;;
16478;SDS011;8350;52.316;10.530;2023-04-06T02:40:41;5.00;;;4.10;;
16478;SDS011;8350;52.316;10.530;2023-04-06T02:43:07;5.80;;;3.78;;
16478;SDS011;8350;52.316;10.530;2023-04-06T02:45:34;3.95;;;3.17;;
16478;SDS011;8350;52.316;10.530;2023-04-06T02:48:16;4.25;;;3.47;;
16478;SDS011;8350;52.316;10.530;2023-04-06T02:50:44;8.00;;;3.72;;
16478;SDS011;8350;52.316;10.530;2023-04-06T02:53:13;5.45;;;3.50;;
16478;SDS011;8350;52.316;10.530;2023-04-06T02:55:40;3.55;;;3.17;;
16478;SDS011;8350;52.316;10.530;2023-04-06T02:58:07;4.28;;;3.88;;
16478;SDS011;8350;52.316;10.530;2023-04-06T03:00:34;4.50;;;3.35;;
16478;SDS011;8350;52.316;10.530;2023-04-06T03:03:01;5.13;;;4.43;;
16478;SDS011;8350;52.316;10.530;2023-04-06T03:05:28;4.78;;;4.13;;
16478;SDS011;8350;52.316;10.530;2023-04-06T03:07:57;3.22;;;2.90;;
16478;SDS011;8350;52.316;10.530;2023-04-06T03:10:26;5.35;;;3.92;;
16478;SDS011;8350;52.316;10.530;2023-04-06T03:12:56;5.53;;;3.38;;
16478;SDS011;8350;52.316;10.530;2023-04-06T03:15:22;4.43;;;4.03;;
16478;SDS011;8350;52.316;10.530;2023-04-06T03:17:49;4.03;;;3.63;;
16478;SDS011;8350;52.316;10.530;2023-04-06T03:20:16;4.30;;;3.33;;
16478;SDS011;8350;52.316;10.530;2023-04-06T03:22:46;6.20;;;3.55;;
16478;SDS011;8350;52.316;10.530;2023-04-06T03:25:15;4.35;;;3.67;;
16478;SDS011;8350;52.316;10.530;2023-04-06T03:27:42;4.85;;;3.45;;
16478;SDS011;8350;52.316;10.530;2023-04-06T03:30:09;5.50;;;4.40;;
16478;SDS011;8350;52.316;10.530;2023-04-06T03:32:41;4.60;;;4.07;;
16478;SDS011;8350;52.316;10.530;2023-04-06T03:35:08;6.05;;;4.10;;
16478;SDS011;8350;52.316;10.530;2023-04-06T03:37:35;5.65;;;4.20;;
16478;SDS011;8350;52.316;10.530;2023-04-06T03:40:02;6.05;;;4.22;;
16478;SDS011;8350;52.316;10.530;2023-04-06T03:42:32;5.70;;;3.55;;
16478;SDS011;8350;52.316;10.530;2023-04-06T03:44:59;5.13;;;3.53;;
16478;SDS011;8350;52.316;10.530;2023-04-06T03:47:26;4.72;;;3.70;;
16478;SDS011;8350;52.316;10.530;2023-04-06T03:49:53;4.15;;;3.50;;
16478;SDS011;8350;52.316;10.530;2023-04-06T03:52:20;6.65;;;3.78;;
16478;SDS011;8350;52.316;10.530;2023-04-06T03:54:48;6.85;;;4.07;;
16478;SDS011;8350;52.316;10.530;2023-04-06T03:57:15;7.05;;;3.60;;
16478;SDS011;8350;52.316;10.530;2023-04-06T03:59:43;4.38;;;3.88;;
16478;SDS011;8350;52.316;10.530;2023-04-06T04:02:10;5.00;;;3.97;;
16478;SDS011;8350;52.316;10.530;2023-04-06T04:04:37;6.38;;;4.13;;
16478;SDS011;8350;52.316;10.530;2023-04-06T04:07:04;4.78;;;3.55;;
16478;SDS011;8350;52.316;10.530;2023-04-06T04:09:31;5.55;;;3.58;;
16478;SDS011;8350;52.316;10.530;2023-04-06T04:11:58;3.58;;;3.28;;
16478;SDS011;8350;52.316;10.530;2023-04-06T04:14:25;6.85;;;3.45;;
16478;SDS011;8350;52.316;10.530;2023-04-06T04:16:53;6.10;;;3.80;;
16478;SDS011;8350;52.316;10.530;2023-04-06T04:19:20;6.20;;;3.55;;
16478;SDS011;8350;52.316;10.530;2023-04-06T04:21:50;6.13;;;4.35;;
16478;SDS011;8350;52.316;10.530;2023-04-06T04:24:17;7.32;;;4.03;;
16478;SDS011;8350;52.316;10.530;2023-04-06T04:26:44;7.97;;;3.83;;
16478;SDS011;8350;52.316;10.530;2023-04-06T04:29:11;5.35;;;3.60;;
16478;SDS011;8350;52.316;10.530;2023-04-06T04:31:37;6.07;;;3.63;;
16478;SDS011;8350;52.316;10.530;2023-04-06T04:34:06;5.45;;;3.70;;
16478;SDS011;8350;52.316;10.530;2023-04-06T04:36:33;4.35;;;3.72;;
16478;SDS011;8350;52.316;10.530;2023-04-06T04:39:00;3.65;;;3.35;;
16478;SDS011;8350;52.316;10.530;2023-04-06T04:41:27;5.00;;;4.00;;
16478;SDS011;8350;52.316;10.530;2023-04-06T04:43:54;5.05;;;4.03;;
16478;SDS011;8350;52.316;10.530;2023-04-06T04:46:21;4.95;;;3.83;;
16478;SDS011;8350;52.316;10.530;2023-04-06T04:48:48;7.05;;;3.33;;
16478;SDS011;8350;52.316;10.530;2023-04-06T04:51:16;6.60;;;4.72;;
16478;SDS011;8350;52.316;10.530;2023-04-06T04:53:44;7.00;;;4.30;;
16478;SDS011;8350;52.316;10.530;2023-04-06T04:56:11;4.25;;;3.83;;
16478;SDS011;8350;52.316;10.530;2023-04-06T04:58:38;5.03;;;3.85;;
16478;SDS011;8350;52.316;10.530;2023-04-06T05:01:05;5.28;;;3.88;;
16478;SDS011;8350;52.316;10.530;2023-04-06T05:03:34;7.07;;;5.13;;
16478;SDS011;8350;52.316;10.530;2023-04-06T05:06:04;5.38;;;4.32;;
16478;SDS011;8350;52.316;10.530;2023-04-06T05:08:32;6.10;;;4.65;;
16478;SDS011;8350;52.316;10.530;2023-04-06T05:10:59;6.38;;;4.30;;
16478;SDS011;8350;52.316;10.530;2023-04-06T05:13:26;5.15;;;4.07;;
16478;SDS011;8350;52.316;10.530;2023-04-06T05:15:53;4.57;;;3.60;;
16478;SDS011;8350;52.316;10.530;2023-04-06T05:18:20;8.65;;;3.97;;
16478;SDS011;8350;52.316;10.530;2023-04-06T05:20:47;4.80;;;3.67;;
16478;SDS011;8350;52.316;10.530;2023-04-06T05:23:14;9.05;;;3.72;;
16478;SDS011;8350;52.316;10.530;2023-04-06T05:25:43;8.10;;;3.97;;
16478;SDS011;8350;52.316;10.530;2023-04-06T05:28:10;3.63;;;3.33;;
16478;SDS011;8350;52.316;10.530;2023-04-06T05:30:39;4.22;;;3.53;;
16478;SDS011;8350;52.316;10.530;2023-04-06T05:33:06;4.30;;;3.60;;
16478;SDS011;8350;52.316;10.530;2023-04-06T05:35:33;5.53;;;4.28;;
16478;SDS011;8350;52.316;10.530;2023-04-06T05:38:00;4.60;;;4.20;;
16478;SDS011;8350;52.316;10.530;2023-04-06T05:40:27;5.03;;;3.55;;
16478;SDS011;8350;52.316;10.530;2023-04-06T05:42:56;7.43;;;4.50;;
16478;SDS011;8350;52.316;10.530;2023-04-06T05:45:22;6.95;;;4.07;;
16478;SDS011;8350;52.316;10.530;2023-04-06T05:47:49;6.10;;;4.53;;
16478;SDS011;8350;52.316;10.530;2023-04-06T05:50:17;6.13;;;4.32;;
16478;SDS011;8350;52.316;10.530;2023-04-06T05:52:43;7.13;;;4.45;;
16478;SDS011;8350;52.316;10.530;2023-04-06T05:55:11;4.95;;;4.47;;
16478;SDS011;8350;52.316;10.530;2023-04-06T05:57:40;4.80;;;3.97;;
16478;SDS011;8350;52.316;10.530;2023-04-06T06:00:10;5.00;;;4.53;;
16478;SDS011;8350;52.316;10.530;2023-04-06T06:02:38;4.93;;;4.45;;
16478;SDS011;8350;52.316;10.530;2023-04-06T06:05:07;4.82;;;4.35;;
16478;SDS011;8350;52.316;10.530;2023-04-06T06:07:35;7.28;;;5.43;;
16478;SDS011;8350;52.316;10.530;2023-04-06T06:10:02;5.10;;;4.65;;
16478;SDS011;8350;52.316;10.530;2023-04-06T06:12:29;5.50;;;5.00;;
16478;SDS011;8350;52.316;10.530;2023-04-06T06:14:56;6.13;;;5.20;;
16478;SDS011;8350;52.316;10.530;2023-04-06T06:17:24;4.95;;;4.55;;
16478;SDS011;8350;52.316;10.530;2023-04-06T06:19:51;6.18;;;4.80;;
16478;SDS011;8350;52.316;10.530;2023-04-06T06:22:18;8.90;;;5.70;;
16478;SDS011;8350;52.316;10.530;2023-04-06T06:24:45;5.97;;;5.10;;
16478;SDS011;8350;52.316;10.530;2023-04-06T06:27:12;7.78;;;5.53;;
16478;SDS011;8350;52.316;10.530;2023-04-06T06:29:39;9.18;;;5.45;;
16478;SDS011;8350;52.316;10.530;2023-04-06T06:32:06;6.38;;;5.60;;
16478;SDS011;8350;52.316;10.530;2023-04-06T06:34:35;6.32;;;5.60;;
16478;SDS011;8350;52.316;10.530;2023-04-06T06:37:02;6.53;;;5.85;;
16478;SDS011;8350;52.316;10.530;2023-04-06T06:39:30;8.00;;;5.72;;
16478;SDS011;8350;52.316;10.530;2023-04-06T06:41:57;5.82;;;5.30;;
16478;SDS011;8350;52.316;10.530;2023-04-06T06:44:25;6.78;;;5.30;;
16478;SDS011;8350;52.316;10.530;2023-04-06T06:46:52;6.25;;;5.40;;
16478;SDS011;8350;52.316;10.530;2023-04-06T06:49:20;5.95;;;5.38;;
16478;SDS011;8350;52.316;10.530;2023-04-06T06:51:48;6.00;;;5.47;;
16478;SDS011;8350;52.316;10.530;2023-04-06T06:54:15;7.05;;;6.35;;
16478;SDS011;8350;52.316;10.530;2023-04-06T06:56:42;6.63;;;5.80;;
16478;SDS011;8350;52.316;10.530;2023-04-06T06:59:09;8.48;;;6.40;;
16478;SDS011;8350;52.316;10.530;2023-04-06T07:01:35;7.00;;;5.93;;
16478;SDS011;8350;52.316;10.530;2023-04-06T07:04:03;9.18;;;6.32;;
16478;SDS011;8350;52.316;10.530;2023-04-06T07:06:30;6.68;;;5.88;;
16478;SDS011;8350;52.316;10.530;2023-04-06T07:08:59;7.55;;;6.38;;
16478;SDS011;8350;52.316;10.530;2023-04-06T07:11:26;7.78;;;6.22;;
16478;SDS011;8350;52.316;10.530;2023-04-06T07:13:53;7.30;;;6.68;;
16478;SDS011;8350;52.316;10.530;2023-04-06T07:16:20;7.03;;;6.43;;
16478;SDS011;8350;52.316;10.530;2023-04-06T07:18:46;7.55;;;6.75;;
16478;SDS011;8350;52.316;10.530;2023-04-06T07:21:16;8.43;;;6.28;;
16478;SDS011;8350;52.316;10.530;2023-04-06T07:23:43;10.52;;;6.72;;
16478;SDS011;8350;52.316;10.530;2023-04-06T07:26:14;7.35;;;6.65;;
16478;SDS011;8350;52.316;10.530;2023-04-06T07:28:41;7.85;;;6.18;;
16478;SDS011;8350;52.316;10.530;2023-04-06T07:31:08;7.07;;;6.00;;
16478;SDS011;8350;52.316;10.530;2023-04-06T07:33:35;6.93;;;5.90;;
16478;SDS011;8350;52.316;10.530;2023-04-06T07:36:02;8.95;;;6.15;;
16478;SDS011;8350;52.316;10.530;2023-04-06T07:38:30;6.78;;;6.18;;
16478;SDS011;8350;52.316;10.530;2023-04-06T07:40:57;7.40;;;6.30;;
16478;SDS011;8350;52.316;10.530;2023-04-06T07:43:25;7.57;;;6.32;;
16478;SDS011;8350;52.316;10.530;2023-04-06T07:45:52;7.40;;;5.95;;
16478;SDS011;8350;52.316;10.530;2023-04-06T07:48:22;6.20;;;5.60;;
16478;SDS011;8350;52.316;10.530;2023-04-06T07:50:51;6.78;;;5.60;;
16478;SDS011;8350;52.316;10.530;2023-04-06T07:53:27;6.57;;;5.18;;
16478;SDS011;8350;52.316;10.530;2023-04-06T07:55:54;5.57;;;5.07;;
16478;SDS011;8350;52.316;10.530;2023-04-06T07:58:21;6.00;;;5.50;;
16478;SDS011;8350;52.316;10.530;2023-04-06T08:00:49;5.68;;;5.15;;
16478;SDS011;8350;52.316;10.530;2023-04-06T08:03:16;5.35;;;4.85;;
16478;SDS011;8350;52.316;10.530;2023-04-06T08:05:45;5.05;;;4.65;;
16478;SDS011;8350;52.316;10.530;2023-04-06T08:08:12;5.97;;;5.22;;
16478;SDS011;8350;52.316;10.530;2023-04-06T08:10:46;6.75;;;5.60;;
16478;SDS011;8350;52.316;10.530;2023-04-06T08:13:13;5.68;;;5.18;;
16478;SDS011;8350;52.316;10.530;2023-04-06T08:15:41;6.30;;;5.72;;
16478;SDS011;8350;52.316;10.530;2023-04-06T08:18:09;5.95;;;5.32;;
16478;SDS011;8350;52.316;10.530;2023-04-06T08:20:36;5.97;;;5.38;;
16478;SDS011;8350;52.316;10.530;2023-04-06T08:23:06;7.60;;;5.47;;
16478;SDS011;8350;52.316;10.530;2023-04-06T08:25:34;8.60;;;6.13;;
16478;SDS011;8350;52.316;10.530;2023-04-06T08:28:02;6.60;;;5.70;;
16478;SDS011;8350;52.316;10.530;2023-04-06T08:30:29;5.93;;;5.43;;
16478;SDS011;8350;52.316;10.530;2023-04-06T08:32:56;7.45;;;5.25;;
16478;SDS011;8350;52.316;10.530;2023-04-06T08:35:27;6.13;;;5.63;;
16478;SDS011;8350;52.316;10.530;2023-04-06T08:37:54;6.25;;;5.50;;
16478;SDS011;8350;52.316;10.530;2023-04-06T08:40:22;7.45;;;5.65;;
16478;SDS011;8350;52.316;10.530;2023-04-06T08:42:50;5.63;;;5.10;;
16478;SDS011;8350;52.316;10.530;2023-04-06T08:45:20;6.32;;;5.68;;
16478;SDS011;8350;52.316;10.530;2023-04-06T08:47:48;7.72;;;5.47;;
16478;SDS011;8350;52.316;10.530;2023-04-06T08:50:17;6.25;;;5.63;;
16478;SDS011;8350;52.316;10.530;2023-04-06T08:52:46;5.70;;;5.20;;
16478;SDS011;8350;52.316;10.530;2023-04-06T08:55:14;6.97;;;6.10;;
16478;SDS011;8350;52.316;10.530;2023-04-06T08:57:42;6.07;;;5.57;;
16478;SDS011;8350;52.316;10.530;2023-04-06T09:00:10;6.28;;;5.78;;
16478;SDS011;8350;52.316;10.530;2023-04-06T09:02:38;6.57;;;5.97;;
16478;SDS011;8350;52.316;10.530;2023-04-06T09:05:07;6.25;;;5.40;;
16478;SDS011;8350;52.316;10.530;2023-04-06T09:07:35;6.95;;;5.82;;
16478;SDS011;8350;52.316;10.530;2023-04-06T09:10:04;6.28;;;5.65;;
16478;SDS011;8350;52.316;10.530;2023-04-06T09:12:32;7.00;;;6.28;;
16478;SDS011;8350;52.316;10.530;2023-04-06T09:15:02;5.75;;;5.22;;
16478;SDS011;8350;52.316;10.530;2023-04-06T09:17:30;7.72;;;5.72;;
16478;SDS011;8350;52.316;10.530;2023-04-06T09:19:58;7.22;;;6.13;;
16478;SDS011;8350;52.316;10.530;2023-04-06T09:22:34;6.97;;;6.28;;
16478;SDS011;8350;52.316;10.530;2023-04-06T09:25:02;7.32;;;5.90;;
16478;SDS011;8350;52.316;10.530;2023-04-06T09:27:31;6.07;;;5.50;;
16478;SDS011;8350;52.316;10.530;2023-04-06T09:30:06;5.63;;;5.00;;
16478;SDS011;8350;52.316;10.530;2023-04-06T09:32:49;6.60;;;5.60;;
16478;SDS011;8350;52.316;10.530;2023-04-06T09:35:19;5.80;;;5.30;;
16478;SDS011;8350;52.316;10.530;2023-04-06T09:37:46;7.60;;;5.53;;
16478;SDS011;8350;52.316;10.530;2023-04-06T09:40:16;7.35;;;5.60;;
16478;SDS011;8350;52.316;10.530;2023-04-06T09:42:45;6.00;;;5.40;;
16478;SDS011;8350;52.316;10.530;2023-04-06T09:45:13;7.82;;;5.78;;
16478;SDS011;8350;52.316;10.530;2023-04-06T09:47:42;7.18;;;5.80;;
16478;SDS011;8350;52.316;10.530;2023-04-06T09:50:10;5.68;;;5.18;;
16478;SDS011;8350;52.316;10.530;2023-04-06T09:52:40;5.65;;;5.10;;
16478;SDS011;8350;52.316;10.530;2023-04-06T09:55:09;7.60;;;5.85;;
16478;SDS011;8350;52.316;10.530;2023-04-06T09:57:42;7.38;;;6.25;;
16478;SDS011;8350;52.316;10.530;2023-04-06T10:00:17;7.40;;;5.85;;
16478;SDS011;8350;52.316;10.530;2023-04-06T10:02:49;7.45;;;6.43;;
16478;SDS011;8350;52.316;10.530;2023-04-06T10:05:27;6.47;;;5.88;;
16478;SDS011;8350;52.316;10.530;2023-04-06T10:07:59;6.97;;;5.70;;
16478;SDS011;8350;52.316;10.530;2023-04-06T10:10:31;8.07;;;5.80;;
16478;SDS011;8350;52.316;10.530;2023-04-06T10:13:05;6.78;;;5.60;;
16478;SDS011;8350;52.316;10.530;2023-04-06T10:15:34;7.78;;;5.70;;
16478;SDS011;8350;52.316;10.530;2023-04-06T10:18:03;7.13;;;6.32;;
16478;SDS011;8350;52.316;10.530;2023-04-06T10:20:31;9.75;;;6.40;;
16478;SDS011;8350;52.316;10.530;2023-04-06T10:23:06;8.00;;;6.68;;
16478;SDS011;8350;52.316;10.530;2023-04-06T10:25:40;7.25;;;6.07;;
16478;SDS011;8350;52.316;10.530;2023-04-06T10:28:21;9.65;;;6.03;;
16478;SDS011;8350;52.316;10.530;2023-04-06T10:30:48;7.28;;;6.00;;
16478;SDS011;8350;52.316;10.530;2023-04-06T10:33:15;7.53;;;6.35;;
16478;SDS011;8350;52.316;10.530;2023-04-06T10:35:42;6.78;;;6.15;;
16478;SDS011;8350;52.316;10.530;2023-04-06T10:38:09;7.18;;;5.85;;
16478;SDS011;8350;52.316;10.530;2023-04-06T10:40:39;6.85;;;6.07;;
16478;SDS011;8350;52.316;10.530;2023-04-06T10:43:08;6.65;;;6.00;;
16478;SDS011;8350;52.316;10.530;2023-04-06T10:45:38;6.03;;;5.53;;
16478;SDS011;8350;52.316;10.530;2023-04-06T10:48:15;5.75;;;5.25;;
16478;SDS011;8350;52.316;10.530;2023-04-06T10:50:43;6.72;;;6.03;;
16478;SDS011;8350;52.316;10.530;2023-04-06T10:53:11;8.88;;;6.35;;
16478;SDS011;8350;52.316;10.530;2023-04-06T10:55:46;7.57;;;6.15;;
16478;SDS011;8350;52.316;10.530;2023-04-06T10:58:15;7.10;;;6.40;;
16478;SDS011;8350;52.316;10.530;2023-04-06T11:00:44;6.78;;;6.18;;
16478;SDS011;8350;52.316;10.530;2023-04-06T11:03:12;7.13;;;6.45;;
16478;SDS011;8350;52.316;10.530;2023-04-06T11:05:42;10.02;;;6.50;;
16478;SDS011;8350;52.316;10.530;2023-04-06T11:08:10;9.70;;;6.15;;
16478;SDS011;8350;52.316;10.530;2023-04-06T11:10:48;7.00;;;6.30;;
16478;SDS011;8350;52.316;10.530;2023-04-06T11:13:15;8.43;;;6.78;;
16478;SDS011;8350;52.316;10.530;2023-04-06T11:15:47;7.55;;;6.82;;
16478;SDS011;8350;52.316;10.530;2023-04-06T11:18:16;7.10;;;6.43;;
16478;SDS011;8350;52.316;10.530;2023-04-06T11:20:47;7.53;;;6.68;;
16478;SDS011;8350;52.316;10.530;2023-04-06T11:23:21;7.93;;;7.10;;
16478;SDS011;8350;52.316;10.530;2023-04-06T11:25:50;7.72;;;7.00;;
16478;SDS011;8350;52.316;10.530;2023-04-06T11:28:17;8.13;;;7.00;;
16478;SDS011;8350;52.316;10.530;2023-04-06T11:30:45;8.27;;;6.53;;
16478;SDS011;8350;52.316;10.530;2023-04-06T11:33:19;7.50;;;6.82;;
16478;SDS011;8350;52.316;10.530;2023-04-06T11:35:47;7.65;;;6.90;;
16478;SDS011;8350;52.316;10.530;2023-04-06T11:38:14;7.55;;;6.78;;
16478;SDS011;8350;52.316;10.530;2023-04-06T11:40:44;7.47;;;6.78;;
16478;SDS011;8350;52.316;10.530;2023-04-06T11:43:12;7.03;;;6.40;;
16478;SDS011;8350;52.316;10.530;2023-04-06T11:45:39;7.57;;;6.80;;
16478;SDS011;8350;52.316;10.530;2023-04-06T11:48:17;7.25;;;6.55;;
16478;SDS011;8350;52.316;10.530;2023-04-06T11:50:46;9.55;;;7.05;;
16478;SDS011;8350;52.316;10.530;2023-04-06T11:53:14;7.85;;;6.93;;
16478;SDS011;8350;52.316;10.530;2023-04-06T11:55:41;7.40;;;6.70;;
16478;SDS011;8350;52.316;10.530;2023-04-06T11:58:10;7.68;;;6.65;;
16478;SDS011;8350;52.316;10.530;2023-04-06T12:00:37;6.88;;;6.28;;
16478;SDS011;8350;52.316;10.530;2023-04-06T12:03:04;6.43;;;5.78;;
16478;SDS011;8350;52.316;10.530;2023-04-06T12:05:32;8.68;;;6.97;;
16478;SDS011;8350;52.316;10.530;2023-04-06T12:08:00;8.73;;;7.70;;
16478;SDS011;8350;52.316;10.530;2023-04-06T12:10:30;7.03;;;6.40;;
16478;SDS011;8350;52.316;10.530;2023-04-06T12:12:57;8.20;;;7.43;;
16478;SDS011;8350;52.316;10.530;2023-04-06T12:15:24;7.57;;;6.85;;
16478;SDS011;8350;52.316;10.530;2023-04-06T12:17:51;7.32;;;6.63;;
16478;SDS011;8350;52.316;10.530;2023-04-06T12:20:18;7.68;;;6.97;;
16478;SDS011;8350;52.316;10.530;2023-04-06T12:22:47;8.13;;;7.35;;
16478;SDS011;8350;52.316;10.530;2023-04-06T12:25:14;7.60;;;6.75;;
16478;SDS011;8350;52.316;10.530;2023-04-06T12:27:41;9.07;;;7.68;;
16478;SDS011;8350;52.316;10.530;2023-04-06T12:30:08;7.53;;;6.82;;
16478;SDS011;8350;52.316;10.530;2023-04-06T12:32:35;7.55;;;6.85;;
16478;SDS011;8350;52.316;10.530;2023-04-06T12:35:02;7.40;;;6.75;;
16478;SDS011;8350;52.316;10.530;2023-04-06T12:37:30;7.78;;;6.97;;
16478;SDS011;8350;52.316;10.530;2023-04-06T12:39:58;7.63;;;6.82;;
16478;SDS011;8350;52.316;10.530;2023-04-06T12:42:25;7.55;;;6.75;;
16478;SDS011;8350;52.316;10.530;2023-04-06T12:44:52;8.35;;;6.90;;
16478;SDS011;8350;52.316;10.530;2023-04-06T12:47:19;7.32;;;6.15;;
16478;SDS011;8350;52.316;10.530;2023-04-06T12:49:47;7.03;;;6.43;;
16478;SDS011;8350;52.316;10.530;2023-04-06T12:52:15;7.72;;;6.43;;
16478;SDS011;8350;52.316;10.530;2023-04-06T12:54:42;7.32;;;6.47;;
16478;SDS011;8350;52.316;10.530;2023-04-06T12:57:11;7.13;;;6.45;;
16478;SDS011;8350;52.316;10.530;2023-04-06T12:59:38;7.95;;;6.57;;
16478;SDS011;8350;52.316;10.530;2023-04-06T13:02:06;7.28;;;6.55;;
16478;SDS011;8350;52.316;10.530;2023-04-06T13:04:33;6.60;;;6.00;;
16478;SDS011;8350;52.316;10.530;2023-04-06T13:07:00;7.47;;;6.75;;
16478;SDS011;8350;52.316;10.530;2023-04-06T13:09:27;6.38;;;5.75;;
16478;SDS011;8350;52.316;10.530;2023-04-06T13:11:54;8.20;;;6.03;;
16478;SDS011;8350;52.316;10.530;2023-04-06T13:14:23;9.20;;;6.82;;
16478;SDS011;8350;52.316;10.530;2023-04-06T13:16:50;6.60;;;5.97;;
16478;SDS011;8350;52.316;10.530;2023-04-06T13:19:17;7.53;;;6.43;;
16478;SDS011;8350;52.316;10.530;2023-04-06T13:21:45;8.20;;;6.20;;
16478;SDS011;8350;52.316;10.530;2023-04-06T13:24:15;7.72;;;5.95;;
16478;SDS011;8350;52.316;10.530;2023-04-06T13:26:42;6.07;;;5.47;;
16478;SDS011;8350;52.316;10.530;2023-04-06T13:29:09;6.07;;;5.47;;
16478;SDS011;8350;52.316;10.530;2023-04-06T13:31:37;6.00;;;5.43;;
16478;SDS011;8350;52.316;10.530;2023-04-06T13:34:05;5.82;;;5.30;;
16478;SDS011;8350;52.316;10.530;2023-04-06T13:36:32;6.03;;;5.45;;
16478;SDS011;8350;52.316;10.530;2023-04-06T13:38:59;6.32;;;5.72;;
16478;SDS011;8350;52.316;10.530;2023-04-06T13:41:26;6.22;;;5.72;;
16478;SDS011;8350;52.316;10.530;2023-04-06T13:43:55;5.82;;;5.32;;
16478;SDS011;8350;52.316;10.530;2023-04-06T13:46:23;6.80;;;6.15;;
16478;SDS011;8350;52.316;10.530;2023-04-06T13:48:51;6.43;;;5.75;;
16478;SDS011;8350;52.316;10.530;2023-04-06T13:51:18;6.38;;;5.78;;
16478;SDS011;8350;52.316;10.530;2023-04-06T13:53:45;5.53;;;5.03;;
16478;SDS011;8350;52.316;10.530;2023-04-06T13:56:12;6.53;;;5.40;;
16478;SDS011;8350;52.316;10.530;2023-04-06T13:58:39;7.15;;;6.10;;
16478;SDS011;8350;52.316;10.530;2023-04-06T14:01:06;5.93;;;5.40;;
16478;SDS011;8350;52.316;10.530;2023-04-06T14:03:34;6.10;;;5.00;;
16478;SDS011;8350;52.316;10.530;2023-04-06T14:06:08;5.97;;;5.47;;
16478;SDS011;8350;52.316;10.530;2023-04-06T14:08:36;5.82;;;5.32;;
16478;SDS011;8350;52.316;10.530;2023-04-06T14:11:03;6.07;;;5.47;;
16478;SDS011;8350;52.316;10.530;2023-04-06T14:13:33;6.25;;;5.60;;
16478;SDS011;8350;52.316;10.530;2023-04-06T14:16:00;6.70;;;5.45;;
16478;SDS011;8350;52.316;10.530;2023-04-06T14:18:27;5.60;;;5.05;;
16478;SDS011;8350;52.316;10.530;2023-04-06T14:20:56;6.60;;;5.10;;
16478;SDS011;8350;52.316;10.530;2023-04-06T14:23:25;6.22;;;5.68;;
16478;SDS011;8350;52.316;10.530;2023-04-06T14:26:02;7.32;;;5.70;;
16478;SDS011;8350;52.316;10.530;2023-04-06T14:28:30;6.78;;;6.18;;
16478;SDS011;8350;52.316;10.530;2023-04-06T14:31:01;6.72;;;6.13;;
16478;SDS011;8350;52.316;10.530;2023-04-06T14:33:35;6.00;;;5.50;;
16478;SDS011;8350;52.316;10.530;2023-04-06T14:36:02;6.38;;;5.80;;
16478;SDS011;8350;52.316;10.530;2023-04-06T14:38:31;7.78;;;5.90;;
16478;SDS011;8350;52.316;10.530;2023-04-06T14:41:01;6.18;;;5.57;;
16478;SDS011;8350;52.316;10.530;2023-04-06T14:43:28;6.25;;;5.60;;
16478;SDS011;8350;52.316;10.530;2023-04-06T14:45:59;6.85;;;5.72;;
16478;SDS011;8350;52.316;10.530;2023-04-06T14:48:26;6.10;;;5.50;;
16478;SDS011;8350;52.316;10.530;2023-04-06T14:50:54;5.80;;;5.20;;
16478;SDS011;8350;52.316;10.530;2023-04-06T14:53:21;6.68;;;5.40;;